sensor_id;sensor_type;location;lat;lon;timestamp;temperature;humidity
16700;DHT22;8466;52.286;21.124;2023-01-29T00:00:18;0.00;99.90
16700;DHT22;8466;52.286;21.124;2023-01-29T00:02:47;0.00;99.90
16700;DHT22;8466;52.286;21.124;2023-01-29T00:05:16;0.10;99.90
16700;DHT22;8466;52.286;21.124;2023-01-29T00:07:56;0.10;99.90
16700;DHT22;8466;52.286;21.124;2023-01-29T00:10:24;0.10;99.90
16700;DHT22;8466;52.286;21.124;2023-01-29T00:12:53;0.10;99.90
16700;DHT22;8466;52.286;21.124;2023-01-29T00:15:22;0.00;99.90
16700;DHT22;8466;52.286;21.124;2023-01-29T00:17:50;0.00;99.90
16700;DHT22;8466;52.286;21.124;2023-01-29T00:20:19;0.00;99.90
16700;DHT22;8466;52.286;21.124;2023-01-29T00:22:47;0.00;99.90
16700;DHT22;8466;52.286;21.124;2023-01-29T00:25:18;0.00;99.90
16700;DHT22;8466;52.286;21.124;2023-01-29T00:27:47;0.00;99.90
16700;DHT22;8466;52.286;21.124;2023-01-29T00:30:16;-0.10;99.90
16700;DHT22;8466;52.286;21.124;2023-01-29T00:32:46;-0.10;99.90
16700;DHT22;8466;52.286;21.124;2023-01-29T00:35:15;-0.10;99.90
16700;DHT22;8466;52.286;21.124;2023-01-29T00:37:43;-0.10;99.90
16700;DHT22;8466;52.286;21.124;2023-01-29T00:40:12;-0.10;99.90
16700;DHT22;8466;52.286;21.124;2023-01-29T00:42:44;-0.10;99.90
16700;DHT22;8466;52.286;21.124;2023-01-29T00:45:31;-0.20;99.90
16700;DHT22;8466;52.286;21.124;2023-01-29T00:47:59;-0.10;99.90
16700;DHT22;8466;52.286;21.124;2023-01-29T00:50:28;-0.10;99.90
16700;DHT22;8466;52.286;21.124;2023-01-29T00:52:57;0.00;99.90
16700;DHT22;8466;52.286;21.124;2023-01-29T00:55:26;0.00;99.90
16700;DHT22;8466;52.286;21.124;2023-01-29T00:57:56;-0.10;99.90
16700;DHT22;8466;52.286;21.124;2023-01-29T01:00:24;-0.10;99.90
16700;DHT22;8466;52.286;21.124;2023-01-29T01:02:53;0.00;99.90
16700;DHT22;8466;52.286;21.124;2023-01-29T01:05:33;0.00;99.90
16700;DHT22;8466;52.286;21.124;2023-01-29T01:08:03;-0.10;99.90
16700;DHT22;8466;52.286;21.124;2023-01-29T01:10:58;0.00;99.90
16700;DHT22;8466;52.286;21.124;2023-01-29T01:13:28;0.00;99.90
16700;DHT22;8466;52.286;21.124;2023-01-29T01:15:57;0.00;99.90
16700;DHT22;8466;52.286;21.124;2023-01-29T01:18:29;0.10;99.90
16700;DHT22;8466;52.286;21.124;2023-01-29T01:20:58;-0.10;99.90
16700;DHT22;8466;52.286;21.124;2023-01-29T01:23:26;-0.20;99.90
16700;DHT22;8466;52.286;21.124;2023-01-29T01:25:55;-0.20;99.90
16700;DHT22;8466;52.286;21.124;2023-01-29T01:28:27;-0.10;99.90
16700;DHT22;8466;52.286;21.124;2023-01-29T01:30:56;-0.20;99.90
16700;DHT22;8466;52.286;21.124;2023-01-29T01:33:25;-0.20;99.90
16700;DHT22;8466;52.286;21.124;2023-01-29T01:35:53;-0.20;99.90
16700;DHT22;8466;52.286;21.124;2023-01-29T01:38:22;-0.20;99.90
16700;DHT22;8466;52.286;21.124;2023-01-29T01:40:51;-0.20;99.90
16700;DHT22;8466;52.286;21.124;2023-01-29T01:43:20;-0.10;99.90
16700;DHT22;8466;52.286;21.124;2023-01-29T01:45:50;-0.10;99.90
16700;DHT22;8466;52.286;21.124;2023-01-29T01:48:21;-0.10;99.90
16700;DHT22;8466;52.286;21.124;2023-01-29T01:50:55;-0.10;99.90
16700;DHT22;8466;52.286;21.124;2023-01-29T01:53:28;-0.20;99.90
16700;DHT22;8466;52.286;21.124;2023-01-29T01:56:03;-0.20;99.90
16700;DHT22;8466;52.286;21.124;2023-01-29T01:58:35;-0.10;99.90
16700;DHT22;8466;52.286;21.124;2023-01-29T02:01:07;-0.20;99.90
16700;DHT22;8466;52.286;21.124;2023-01-29T02:03:39;-0.20;99.90
16700;DHT22;8466;52.286;21.124;2023-01-29T02:06:27;-0.20;99.90
16700;DHT22;8466;52.286;21.124;2023-01-29T02:09:16;-0.10;99.90
16700;DHT22;8466;52.286;21.124;2023-01-29T02:12:03;-0.20;99.90
16700;DHT22;8466;52.286;21.124;2023-01-29T02:14:33;-0.20;99.90
16700;DHT22;8466;52.286;21.124;2023-01-29T02:17:12;-0.20;99.90
16700;DHT22;8466;52.286;21.124;2023-01-29T02:19:46;-0.10;99.90
16700;DHT22;8466;52.286;21.124;2023-01-29T02:22:45;-0.20;99.90
16700;DHT22;8466;52.286;21.124;2023-01-29T02:28:37;-0.20;99.90
16700;DHT22;8466;52.286;21.124;2023-01-29T02:31:14;-0.20;99.90
16700;DHT22;8466;52.286;21.124;2023-01-29T02:33:50;-0.20;99.90
16700;DHT22;8466;52.286;21.124;2023-01-29T02:36:29;-0.20;99.90
16700;DHT22;8466;52.286;21.124;2023-01-29T02:39:07;-0.20;99.90
16700;DHT22;8466;52.286;21.124;2023-01-29T02:41:41;-0.20;99.90
16700;DHT22;8466;52.286;21.124;2023-01-29T02:44:18;-0.20;99.90
16700;DHT22;8466;52.286;21.124;2023-01-29T02:46:55;-0.20;99.90
16700;DHT22;8466;52.286;21.124;2023-01-29T02:49:31;-0.20;99.90
16700;DHT22;8466;52.286;21.124;2023-01-29T02:52:05;-0.20;99.90
16700;DHT22;8466;52.286;21.124;2023-01-29T02:54:42;-0.20;99.90
16700;DHT22;8466;52.286;21.124;2023-01-29T02:57:16;-0.20;99.90
16700;DHT22;8466;52.286;21.124;2023-01-29T02:59:53;-0.20;99.90
16700;DHT22;8466;52.286;21.124;2023-01-29T03:02:27;-0.20;99.90
16700;DHT22;8466;52.286;21.124;2023-01-29T03:05:00;-0.20;99.90
16700;DHT22;8466;52.286;21.124;2023-01-29T03:07:34;-0.20;99.90
16700;DHT22;8466;52.286;21.124;2023-01-29T03:10:15;-0.20;99.90
16700;DHT22;8466;52.286;21.124;2023-01-29T03:12:48;-0.20;99.90
16700;DHT22;8466;52.286;21.124;2023-01-29T03:15:24;-0.20;99.90
16700;DHT22;8466;52.286;21.124;2023-01-29T03:17:59;-0.20;99.90
16700;DHT22;8466;52.286;21.124;2023-01-29T03:20:32;-0.20;99.90
16700;DHT22;8466;52.286;21.124;2023-01-29T03:23:04;-0.20;99.90
16700;DHT22;8466;52.286;21.124;2023-01-29T03:25:35;-0.30;99.90
16700;DHT22;8466;52.286;21.124;2023-01-29T03:28:24;-0.20;99.90
16700;DHT22;8466;52.286;21.124;2023-01-29T03:31:14;-0.20;99.90
16700;DHT22;8466;52.286;21.124;2023-01-29T03:34:07;-0.20;99.90
16700;DHT22;8466;52.286;21.124;2023-01-29T03:36:48;-0.20;99.90
16700;DHT22;8466;52.286;21.124;2023-01-29T03:39:25;-0.20;99.90
16700;DHT22;8466;52.286;21.124;2023-01-29T03:41:58;-0.20;99.90
16700;DHT22;8466;52.286;21.124;2023-01-29T03:44:33;-0.10;99.90
16700;DHT22;8466;52.286;21.124;2023-01-29T03:47:13;-0.10;99.90
16700;DHT22;8466;52.286;21.124;2023-01-29T03:49:53;-0.10;99.90
16700;DHT22;8466;52.286;21.124;2023-01-29T03:52:30;-0.20;99.90
16700;DHT22;8466;52.286;21.124;2023-01-29T03:55:06;-0.20;99.90
16700;DHT22;8466;52.286;21.124;2023-01-29T03:57:38;-0.10;99.90
16700;DHT22;8466;52.286;21.124;2023-01-29T04:00:13;-0.20;99.90
16700;DHT22;8466;52.286;21.124;2023-01-29T04:02:48;-0.10;99.90
16700;DHT22;8466;52.286;21.124;2023-01-29T04:05:21;-0.20;99.90
16700;DHT22;8466;52.286;21.124;2023-01-29T04:07:55;-0.20;99.90
16700;DHT22;8466;52.286;21.124;2023-01-29T04:10:26;-0.20;99.90
16700;DHT22;8466;52.286;21.124;2023-01-29T04:12:59;-0.20;99.90
16700;DHT22;8466;52.286;21.124;2023-01-29T04:15:33;-0.20;99.90
16700;DHT22;8466;52.286;21.124;2023-01-29T04:18:05;-0.10;99.90
16700;DHT22;8466;52.286;21.124;2023-01-29T04:20:35;-0.10;99.90
16700;DHT22;8466;52.286;21.124;2023-01-29T04:23:05;-0.10;99.90
16700;DHT22;8466;52.286;21.124;2023-01-29T04:25:41;-0.10;99.90
16700;DHT22;8466;52.286;21.124;2023-01-29T04:28:17;-0.10;99.90
16700;DHT22;8466;52.286;21.124;2023-01-29T04:30:53;-0.10;99.90
16700;DHT22;8466;52.286;21.124;2023-01-29T04:33:30;-0.10;99.90
16700;DHT22;8466;52.286;21.124;2023-01-29T04:36:16;-0.20;99.90
16700;DHT22;8466;52.286;21.124;2023-01-29T04:38:56;-0.10;99.90
16700;DHT22;8466;52.286;21.124;2023-01-29T04:41:32;0.00;99.90
16700;DHT22;8466;52.286;21.124;2023-01-29T04:44:07;-0.10;99.90
16700;DHT22;8466;52.286;21.124;2023-01-29T04:46:45;-0.10;99.90
16700;DHT22;8466;52.286;21.124;2023-01-29T04:49:26;-0.10;99.90
16700;DHT22;8466;52.286;21.124;2023-01-29T04:52:01;-0.10;99.90
16700;DHT22;8466;52.286;21.124;2023-01-29T04:54:43;-0.10;99.90
16700;DHT22;8466;52.286;21.124;2023-01-29T04:57:21;-0.10;99.90
16700;DHT22;8466;52.286;21.124;2023-01-29T04:59:57;-0.10;99.90
16700;DHT22;8466;52.286;21.124;2023-01-29T05:02:27;-0.10;99.90
16700;DHT22;8466;52.286;21.124;2023-01-29T05:04:58;0.00;99.90
16700;DHT22;8466;52.286;21.124;2023-01-29T05:07:28;-0.10;99.90
16700;DHT22;8466;52.286;21.124;2023-01-29T05:09:58;-0.10;99.90
16700;DHT22;8466;52.286;21.124;2023-01-29T05:12:28;-0.10;99.90
16700;DHT22;8466;52.286;21.124;2023-01-29T05:15:01;-0.10;99.90
16700;DHT22;8466;52.286;21.124;2023-01-29T05:17:31;-0.10;99.90
16700;DHT22;8466;52.286;21.124;2023-01-29T05:20:01;-0.10;99.90
16700;DHT22;8466;52.286;21.124;2023-01-29T05:22:30;-0.10;99.90
16700;DHT22;8466;52.286;21.124;2023-01-29T05:24:59;-0.10;99.90
16700;DHT22;8466;52.286;21.124;2023-01-29T05:27:31;-0.10;99.90
16700;DHT22;8466;52.286;21.124;2023-01-29T05:30:20;-0.10;99.90
16700;DHT22;8466;52.286;21.124;2023-01-29T05:32:49;0.00;99.90
16700;DHT22;8466;52.286;21.124;2023-01-29T05:35:19;0.00;99.90
16700;DHT22;8466;52.286;21.124;2023-01-29T05:37:47;0.00;99.90
16700;DHT22;8466;52.286;21.124;2023-01-29T05:40:16;0.00;99.90
16700;DHT22;8466;52.286;21.124;2023-01-29T05:42:45;-0.10;99.90
16700;DHT22;8466;52.286;21.124;2023-01-29T05:45:14;0.00;99.90
16700;DHT22;8466;52.286;21.124;2023-01-29T05:47:43;-0.10;99.90
16700;DHT22;8466;52.286;21.124;2023-01-29T05:50:12;0.00;99.90
16700;DHT22;8466;52.286;21.124;2023-01-29T05:52:43;0.00;99.90
16700;DHT22;8466;52.286;21.124;2023-01-29T05:55:11;0.00;99.90
16700;DHT22;8466;52.286;21.124;2023-01-29T05:57:40;0.00;99.90
16700;DHT22;8466;52.286;21.124;2023-01-29T06:00:10;0.00;99.90
16700;DHT22;8466;52.286;21.124;2023-01-29T06:02:39;0.00;99.90
16700;DHT22;8466;52.286;21.124;2023-01-29T06:05:08;0.00;99.90
16700;DHT22;8466;52.286;21.124;2023-01-29T06:07:37;-0.10;99.90
16700;DHT22;8466;52.286;21.124;2023-01-29T06:10:14;0.00;99.90
16700;DHT22;8466;52.286;21.124;2023-01-29T06:12:44;0.00;99.90
16700;DHT22;8466;52.286;21.124;2023-01-29T06:15:13;0.10;99.90
16700;DHT22;8466;52.286;21.124;2023-01-29T06:17:42;0.00;99.90
16700;DHT22;8466;52.286;21.124;2023-01-29T06:20:11;0.10;99.90
16700;DHT22;8466;52.286;21.124;2023-01-29T06:22:41;0.10;99.90
16700;DHT22;8466;52.286;21.124;2023-01-29T06:25:09;0.10;99.90
16700;DHT22;8466;52.286;21.124;2023-01-29T06:27:40;0.10;99.90
16700;DHT22;8466;52.286;21.124;2023-01-29T06:30:09;0.10;99.90
16700;DHT22;8466;52.286;21.124;2023-01-29T06:32:38;0.10;99.90
16700;DHT22;8466;52.286;21.124;2023-01-29T06:35:08;0.10;99.90
16700;DHT22;8466;52.286;21.124;2023-01-29T06:37:37;0.10;99.90
16700;DHT22;8466;52.286;21.124;2023-01-29T06:40:07;0.10;99.90
16700;DHT22;8466;52.286;21.124;2023-01-29T06:42:35;0.10;99.90
16700;DHT22;8466;52.286;21.124;2023-01-29T06:45:07;0.10;99.90
16700;DHT22;8466;52.286;21.124;2023-01-29T06:47:35;0.20;99.90
16700;DHT22;8466;52.286;21.124;2023-01-29T06:50:05;0.20;99.90
16700;DHT22;8466;52.286;21.124;2023-01-29T06:52:34;0.20;99.90
16700;DHT22;8466;52.286;21.124;2023-01-29T06:55:02;0.30;99.90
16700;DHT22;8466;52.286;21.124;2023-01-29T06:57:31;0.20;99.90
16700;DHT22;8466;52.286;21.124;2023-01-29T07:00:00;0.30;99.90
16700;DHT22;8466;52.286;21.124;2023-01-29T07:02:31;0.30;99.90
16700;DHT22;8466;52.286;21.124;2023-01-29T07:04:59;0.30;99.90
16700;DHT22;8466;52.286;21.124;2023-01-29T07:07:29;0.30;99.90
16700;DHT22;8466;52.286;21.124;2023-01-29T07:09:57;0.40;99.90
16700;DHT22;8466;52.286;21.124;2023-01-29T07:12:29;0.40;99.90
16700;DHT22;8466;52.286;21.124;2023-01-29T07:14:57;0.40;99.90
16700;DHT22;8466;52.286;21.124;2023-01-29T07:17:30;0.50;99.90
16700;DHT22;8466;52.286;21.124;2023-01-29T07:20:01;0.50;99.90
16700;DHT22;8466;52.286;21.124;2023-01-29T07:22:30;0.40;99.90
16700;DHT22;8466;52.286;21.124;2023-01-29T07:24:58;0.50;99.90
16700;DHT22;8466;52.286;21.124;2023-01-29T07:27:31;0.50;99.90
16700;DHT22;8466;52.286;21.124;2023-01-29T07:30:04;0.60;99.90
16700;DHT22;8466;52.286;21.124;2023-01-29T07:32:34;0.60;99.90
16700;DHT22;8466;52.286;21.124;2023-01-29T07:35:03;0.70;99.90
16700;DHT22;8466;52.286;21.124;2023-01-29T07:37:32;0.70;99.90
16700;DHT22;8466;52.286;21.124;2023-01-29T07:40:04;0.70;99.90
16700;DHT22;8466;52.286;21.124;2023-01-29T07:42:37;0.80;99.90
16700;DHT22;8466;52.286;21.124;2023-01-29T07:45:10;0.80;99.90
16700;DHT22;8466;52.286;21.124;2023-01-29T07:47:41;0.80;99.90
16700;DHT22;8466;52.286;21.124;2023-01-29T07:50:10;0.90;99.90
16700;DHT22;8466;52.286;21.124;2023-01-29T07:52:39;0.90;99.90
16700;DHT22;8466;52.286;21.124;2023-01-29T07:55:08;0.90;99.90
16700;DHT22;8466;52.286;21.124;2023-01-29T07:57:37;1.00;99.90
16700;DHT22;8466;52.286;21.124;2023-01-29T08:00:07;1.00;99.90
16700;DHT22;8466;52.286;21.124;2023-01-29T08:02:36;1.10;99.90
16700;DHT22;8466;52.286;21.124;2023-01-29T08:05:07;1.10;99.90
16700;DHT22;8466;52.286;21.124;2023-01-29T08:07:36;1.20;99.90
16700;DHT22;8466;52.286;21.124;2023-01-29T08:10:06;1.20;99.90
16700;DHT22;8466;52.286;21.124;2023-01-29T08:12:35;1.30;99.90
16700;DHT22;8466;52.286;21.124;2023-01-29T08:15:04;1.30;99.90
16700;DHT22;8466;52.286;21.124;2023-01-29T08:17:33;1.20;99.90
16700;DHT22;8466;52.286;21.124;2023-01-29T08:20:17;1.20;99.90
16700;DHT22;8466;52.286;21.124;2023-01-29T08:22:46;1.20;99.90
16700;DHT22;8466;52.286;21.124;2023-01-29T08:25:17;1.20;99.90
16700;DHT22;8466;52.286;21.124;2023-01-29T08:27:46;1.30;99.90
16700;DHT22;8466;52.286;21.124;2023-01-29T08:30:15;1.40;99.90
16700;DHT22;8466;52.286;21.124;2023-01-29T08:32:44;1.40;99.90
16700;DHT22;8466;52.286;21.124;2023-01-29T08:35:14;1.50;99.90
16700;DHT22;8466;52.286;21.124;2023-01-29T08:37:51;1.60;99.90
16700;DHT22;8466;52.286;21.124;2023-01-29T08:40:21;1.60;99.90
16700;DHT22;8466;52.286;21.124;2023-01-29T08:42:50;1.60;99.90
16700;DHT22;8466;52.286;21.124;2023-01-29T08:45:20;1.50;99.90
16700;DHT22;8466;52.286;21.124;2023-01-29T08:47:49;1.50;99.90
16700;DHT22;8466;52.286;21.124;2023-01-29T08:50:18;1.40;99.90
16700;DHT22;8466;52.286;21.124;2023-01-29T08:52:49;1.50;99.90
16700;DHT22;8466;52.286;21.124;2023-01-29T08:55:25;1.50;99.90
16700;DHT22;8466;52.286;21.124;2023-01-29T08:58:00;1.70;99.90
16700;DHT22;8466;52.286;21.124;2023-01-29T09:00:30;1.50;99.90
16700;DHT22;8466;52.286;21.124;2023-01-29T09:03:00;1.70;99.90
16700;DHT22;8466;52.286;21.124;2023-01-29T09:05:30;1.70;99.90
16700;DHT22;8466;52.286;21.124;2023-01-29T09:08:00;1.80;99.90
16700;DHT22;8466;52.286;21.124;2023-01-29T09:10:32;1.80;99.90
16700;DHT22;8466;52.286;21.124;2023-01-29T09:13:01;1.80;99.90
16700;DHT22;8466;52.286;21.124;2023-01-29T09:15:30;1.80;99.90
16700;DHT22;8466;52.286;21.124;2023-01-29T09:18:02;1.90;99.90
16700;DHT22;8466;52.286;21.124;2023-01-29T09:20:31;2.10;99.90
16700;DHT22;8466;52.286;21.124;2023-01-29T09:23:04;2.10;99.90
16700;DHT22;8466;52.286;21.124;2023-01-29T09:25:34;2.20;99.90
16700;DHT22;8466;52.286;21.124;2023-01-29T09:28:03;2.10;99.90
16700;DHT22;8466;52.286;21.124;2023-01-29T09:30:34;2.10;99.90
16700;DHT22;8466;52.286;21.124;2023-01-29T09:33:04;2.10;99.90
16700;DHT22;8466;52.286;21.124;2023-01-29T09:35:33;2.00;99.90
16700;DHT22;8466;52.286;21.124;2023-01-29T09:38:04;2.00;99.90
16700;DHT22;8466;52.286;21.124;2023-01-29T09:40:40;1.90;99.90
16700;DHT22;8466;52.286;21.124;2023-01-29T09:43:42;1.90;99.90
16700;DHT22;8466;52.286;21.124;2023-01-29T09:46:18;2.00;99.90
16700;DHT22;8466;52.286;21.124;2023-01-29T09:48:54;2.00;99.90
16700;DHT22;8466;52.286;21.124;2023-01-29T09:51:41;2.00;99.90
16700;DHT22;8466;52.286;21.124;2023-01-29T09:54:22;2.10;99.90
16700;DHT22;8466;52.286;21.124;2023-01-29T09:56:57;2.20;99.90
16700;DHT22;8466;52.286;21.124;2023-01-29T09:59:29;2.40;99.90
16700;DHT22;8466;52.286;21.124;2023-01-29T10:02:09;2.50;99.90
16700;DHT22;8466;52.286;21.124;2023-01-29T10:05:06;2.60;99.90
16700;DHT22;8466;52.286;21.124;2023-01-29T10:10:46;2.50;99.90
16700;DHT22;8466;52.286;21.124;2023-01-29T10:13:26;2.50;99.90
16700;DHT22;8466;52.286;21.124;2023-01-29T10:16:07;2.40;99.90
16700;DHT22;8466;52.286;21.124;2023-01-29T10:18:58;2.40;99.90
16700;DHT22;8466;52.286;21.124;2023-01-29T10:21:51;2.30;99.90
16700;DHT22;8466;52.286;21.124;2023-01-29T10:24:35;2.20;99.90
16700;DHT22;8466;52.286;21.124;2023-01-29T10:27:12;2.10;99.90
16700;DHT22;8466;52.286;21.124;2023-01-29T10:29:42;2.00;99.90
16700;DHT22;8466;52.286;21.124;2023-01-29T10:32:15;2.00;99.90
16700;DHT22;8466;52.286;21.124;2023-01-29T10:34:48;2.00;99.90
16700;DHT22;8466;52.286;21.124;2023-01-29T10:37:22;2.20;99.90
16700;DHT22;8466;52.286;21.124;2023-01-29T10:39:52;2.30;99.90
16700;DHT22;8466;52.286;21.124;2023-01-29T10:42:30;2.40;99.90
16700;DHT22;8466;52.286;21.124;2023-01-29T10:45:15;2.50;99.90
16700;DHT22;8466;52.286;21.124;2023-01-29T10:48:08;2.50;99.90
16700;DHT22;8466;52.286;21.124;2023-01-29T10:51:03;2.50;99.90
16700;DHT22;8466;52.286;21.124;2023-01-29T10:54:12;2.40;99.90
16700;DHT22;8466;52.286;21.124;2023-01-29T10:57:00;2.30;99.90
16700;DHT22;8466;52.286;21.124;2023-01-29T10:59:49;2.20;99.90
16700;DHT22;8466;52.286;21.124;2023-01-29T11:02:23;2.10;99.90
16700;DHT22;8466;52.286;21.124;2023-01-29T11:04:55;2.10;99.90
16700;DHT22;8466;52.286;21.124;2023-01-29T11:07:24;2.00;99.90
16700;DHT22;8466;52.286;21.124;2023-01-29T11:10:16;2.00;99.90
16700;DHT22;8466;52.286;21.124;2023-01-29T11:12:49;2.00;99.90
16700;DHT22;8466;52.286;21.124;2023-01-29T11:15:22;2.00;99.90
16700;DHT22;8466;52.286;21.124;2023-01-29T11:18:04;2.00;99.90
16700;DHT22;8466;52.286;21.124;2023-01-29T11:20:37;2.00;99.90
16700;DHT22;8466;52.286;21.124;2023-01-29T11:23:17;2.00;99.90
16700;DHT22;8466;52.286;21.124;2023-01-29T11:25:56;2.00;99.90
16700;DHT22;8466;52.286;21.124;2023-01-29T11:28:45;1.90;99.90
16700;DHT22;8466;52.286;21.124;2023-01-29T11:31:21;1.90;99.90
16700;DHT22;8466;52.286;21.124;2023-01-29T11:34:03;1.90;99.90
16700;DHT22;8466;52.286;21.124;2023-01-29T11:36:39;1.90;99.90
16700;DHT22;8466;52.286;21.124;2023-01-29T11:39:14;2.00;99.90
16700;DHT22;8466;52.286;21.124;2023-01-29T11:41:58;2.00;99.90
16700;DHT22;8466;52.286;21.124;2023-01-29T11:44:41;2.10;99.90
16700;DHT22;8466;52.286;21.124;2023-01-29T11:47:18;2.10;99.90
16700;DHT22;8466;52.286;21.124;2023-01-29T11:49:49;2.10;99.90
16700;DHT22;8466;52.286;21.124;2023-01-29T11:52:35;2.10;99.90
16700;DHT22;8466;52.286;21.124;2023-01-29T11:55:15;2.10;99.90
16700;DHT22;8466;52.286;21.124;2023-01-29T11:57:51;2.10;99.90
16700;DHT22;8466;52.286;21.124;2023-01-29T12:00:23;2.10;99.90
16700;DHT22;8466;52.286;21.124;2023-01-29T12:03:00;2.10;99.90
16700;DHT22;8466;52.286;21.124;2023-01-29T12:05:33;2.00;99.90
16700;DHT22;8466;52.286;21.124;2023-01-29T12:08:16;2.00;99.90
16700;DHT22;8466;52.286;21.124;2023-01-29T12:10:47;1.90;99.90
16700;DHT22;8466;52.286;21.124;2023-01-29T12:13:27;1.90;99.90
16700;DHT22;8466;52.286;21.124;2023-01-29T12:16:14;1.80;99.90
16700;DHT22;8466;52.286;21.124;2023-01-29T12:18:50;1.80;99.90
16700;DHT22;8466;52.286;21.124;2023-01-29T12:21:31;1.80;99.90
16700;DHT22;8466;52.286;21.124;2023-01-29T12:24:05;1.70;99.90
16700;DHT22;8466;52.286;21.124;2023-01-29T12:26:43;1.70;99.90
16700;DHT22;8466;52.286;21.124;2023-01-29T12:29:29;1.70;99.90
16700;DHT22;8466;52.286;21.124;2023-01-29T12:32:06;1.70;99.90
16700;DHT22;8466;52.286;21.124;2023-01-29T12:34:45;1.60;99.90
16700;DHT22;8466;52.286;21.124;2023-01-29T12:37:20;1.60;99.90
16700;DHT22;8466;52.286;21.124;2023-01-29T12:39:56;1.60;99.90
16700;DHT22;8466;52.286;21.124;2023-01-29T12:42:31;1.60;99.90
16700;DHT22;8466;52.286;21.124;2023-01-29T12:45:01;1.70;99.90
16700;DHT22;8466;52.286;21.124;2023-01-29T12:47:35;1.60;99.90
16700;DHT22;8466;52.286;21.124;2023-01-29T12:50:18;1.60;99.90
16700;DHT22;8466;52.286;21.124;2023-01-29T12:52:50;1.60;99.90
16700;DHT22;8466;52.286;21.124;2023-01-29T12:55:29;1.50;99.90
16700;DHT22;8466;52.286;21.124;2023-01-29T12:58:09;1.50;99.90
16700;DHT22;8466;52.286;21.124;2023-01-29T13:00:43;1.50;99.90
16700;DHT22;8466;52.286;21.124;2023-01-29T13:03:23;1.50;99.90
16700;DHT22;8466;52.286;21.124;2023-01-29T13:09:38;1.50;99.90
16700;DHT22;8466;52.286;21.124;2023-01-29T13:15:57;1.30;99.90
16700;DHT22;8466;52.286;21.124;2023-01-29T13:18:59;1.30;99.90
16700;DHT22;8466;52.286;21.124;2023-01-29T13:21:48;1.30;99.90
16700;DHT22;8466;52.286;21.124;2023-01-29T13:24:20;1.40;99.90
16700;DHT22;8466;52.286;21.124;2023-01-29T13:26:51;1.30;99.90
16700;DHT22;8466;52.286;21.124;2023-01-29T13:34:10;1.50;99.90
16700;DHT22;8466;52.286;21.124;2023-01-29T13:37:45;1.40;99.90
16700;DHT22;8466;52.286;21.124;2023-01-29T13:40:31;1.30;99.90
16700;DHT22;8466;52.286;21.124;2023-01-29T13:43:17;1.30;99.90
16700;DHT22;8466;52.286;21.124;2023-01-29T13:45:54;1.30;99.90
16700;DHT22;8466;52.286;21.124;2023-01-29T13:48:34;1.30;99.90
16700;DHT22;8466;52.286;21.124;2023-01-29T13:51:19;1.40;99.90
16700;DHT22;8466;52.286;21.124;2023-01-29T13:53:54;1.40;99.90
16700;DHT22;8466;52.286;21.124;2023-01-29T13:56:55;1.40;99.90
16700;DHT22;8466;52.286;21.124;2023-01-29T13:59:57;1.30;99.90
16700;DHT22;8466;52.286;21.124;2023-01-29T14:02:41;1.30;99.90
16700;DHT22;8466;52.286;21.124;2023-01-29T14:05:55;1.30;99.90
16700;DHT22;8466;52.286;21.124;2023-01-29T14:08:39;1.20;99.90
16700;DHT22;8466;52.286;21.124;2023-01-29T14:11:53;1.20;99.90
16700;DHT22;8466;52.286;21.124;2023-01-29T14:15:00;1.20;99.90
16700;DHT22;8466;52.286;21.124;2023-01-29T14:17:33;1.20;99.90
16700;DHT22;8466;52.286;21.124;2023-01-29T14:23:26;1.00;99.90
16700;DHT22;8466;52.286;21.124;2023-01-29T14:26:05;0.90;99.90
16700;DHT22;8466;52.286;21.124;2023-01-29T14:47:19;0.90;99.90
16700;DHT22;8466;52.286;21.124;2023-01-29T14:49:54;0.90;99.90
16700;DHT22;8466;52.286;21.124;2023-01-29T14:52:28;0.90;99.90
16700;DHT22;8466;52.286;21.124;2023-01-29T14:55:03;0.90;99.90
16700;DHT22;8466;52.286;21.124;2023-01-29T14:57:33;0.90;99.90
16700;DHT22;8466;52.286;21.124;2023-01-29T15:00:12;0.90;99.90
16700;DHT22;8466;52.286;21.124;2023-01-29T15:02:49;0.80;99.90
16700;DHT22;8466;52.286;21.124;2023-01-29T15:05:30;0.90;99.90
16700;DHT22;8466;52.286;21.124;2023-01-29T15:08:05;0.90;99.90
16700;DHT22;8466;52.286;21.124;2023-01-29T15:10:43;1.10;99.90
16700;DHT22;8466;52.286;21.124;2023-01-29T15:13:17;0.90;99.90
16700;DHT22;8466;52.286;21.124;2023-01-29T15:15:55;0.80;99.90
16700;DHT22;8466;52.286;21.124;2023-01-29T15:18:32;0.80;99.90
16700;DHT22;8466;52.286;21.124;2023-01-29T15:21:04;0.90;99.90
16700;DHT22;8466;52.286;21.124;2023-01-29T15:23:41;0.80;99.90
16700;DHT22;8466;52.286;21.124;2023-01-29T15:26:16;0.90;99.90
16700;DHT22;8466;52.286;21.124;2023-01-29T15:28:53;0.80;99.90
16700;DHT22;8466;52.286;21.124;2023-01-29T15:31:30;0.80;99.90
16700;DHT22;8466;52.286;21.124;2023-01-29T15:34:05;0.80;99.90
16700;DHT22;8466;52.286;21.124;2023-01-29T15:36:36;0.80;99.90
16700;DHT22;8466;52.286;21.124;2023-01-29T15:39:14;0.80;99.90
16700;DHT22;8466;52.286;21.124;2023-01-29T15:41:45;0.80;99.90
16700;DHT22;8466;52.286;21.124;2023-01-29T15:44:16;0.80;99.90
16700;DHT22;8466;52.286;21.124;2023-01-29T15:46:48;0.90;99.90
16700;DHT22;8466;52.286;21.124;2023-01-29T15:49:24;0.90;99.90
16700;DHT22;8466;52.286;21.124;2023-01-29T15:51:58;0.90;99.90
16700;DHT22;8466;52.286;21.124;2023-01-29T15:54:30;1.00;99.90
16700;DHT22;8466;52.286;21.124;2023-01-29T15:57:01;1.00;99.90
16700;DHT22;8466;52.286;21.124;2023-01-29T15:59:32;1.00;99.90
16700;DHT22;8466;52.286;21.124;2023-01-29T16:02:18;1.00;99.90
16700;DHT22;8466;52.286;21.124;2023-01-29T16:04:50;1.00;99.90
16700;DHT22;8466;52.286;21.124;2023-01-29T16:07:20;1.00;99.90
16700;DHT22;8466;52.286;21.124;2023-01-29T16:09:49;1.00;99.90
16700;DHT22;8466;52.286;21.124;2023-01-29T16:12:19;1.00;99.90
16700;DHT22;8466;52.286;21.124;2023-01-29T16:14:48;1.00;99.90
16700;DHT22;8466;52.286;21.124;2023-01-29T16:17:25;1.00;99.90
16700;DHT22;8466;52.286;21.124;2023-01-29T16:19:56;1.00;99.90
16700;DHT22;8466;52.286;21.124;2023-01-29T16:22:30;1.00;99.90
16700;DHT22;8466;52.286;21.124;2023-01-29T16:25:02;1.00;99.90
16700;DHT22;8466;52.286;21.124;2023-01-29T16:27:32;1.00;99.90
16700;DHT22;8466;52.286;21.124;2023-01-29T16:30:01;1.00;99.90
16700;DHT22;8466;52.286;21.124;2023-01-29T16:32:31;1.00;99.90
16700;DHT22;8466;52.286;21.124;2023-01-29T16:35:02;1.00;99.90
16700;DHT22;8466;52.286;21.124;2023-01-29T16:37:33;1.10;99.90
16700;DHT22;8466;52.286;21.124;2023-01-29T16:40:12;1.00;99.90
16700;DHT22;8466;52.286;21.124;2023-01-29T16:42:41;1.00;99.90
16700;DHT22;8466;52.286;21.124;2023-01-29T16:45:25;1.00;99.90
16700;DHT22;8466;52.286;21.124;2023-01-29T16:48:01;1.00;99.90
16700;DHT22;8466;52.286;21.124;2023-01-29T16:50:47;1.00;99.90
16700;DHT22;8466;52.286;21.124;2023-01-29T16:53:21;1.00;99.90
16700;DHT22;8466;52.286;21.124;2023-01-29T16:55:53;1.10;99.90
16700;DHT22;8466;52.286;21.124;2023-01-29T16:58:29;1.10;99.90
16700;DHT22;8466;52.286;21.124;2023-01-29T17:01:00;1.00;99.90
16700;DHT22;8466;52.286;21.124;2023-01-29T17:03:32;1.00;99.90
16700;DHT22;8466;52.286;21.124;2023-01-29T17:06:21;1.00;99.90
16700;DHT22;8466;52.286;21.124;2023-01-29T17:08:51;1.00;99.90
16700;DHT22;8466;52.286;21.124;2023-01-29T17:11:26;0.90;99.90